Time;durP1;ratioP1;P1;durP2;ratioP2;P2;SDS_P1;SDS_P2;PMS_P1;PMS_P2;Temp;Humidity;BMP_temperature;BMP_pressure;BME280_temperature;BME280_humidity;BME280_pressure;Samples;Min_cycle;Max_cycle;Signal;HPM_P1;HPM_P2
2022/02/12 06:54:33;;;;;;;4.17;1.37;;;;;;;;;;4958973;28;20106;-68
2022/02/12 06:56:59;;;;;;;5.00;1.50;;;;;;;;;;4974073;28;20137;-67
2022/02/12 06:59:25;;;;;;;3.07;1.37;;;;;;;;;;4973070;28;20133;-69
2022/02/12 07:01:52;;;;;;;3.20;1.60;;;;;;;;;;4973564;28;20062;-66
2022/02/12 07:04:18;;;;;;;5.53;1.87;;;;;;;;;;4973823;28;20042;-67
2022/02/12 07:06:44;;;;;;;13.50;2.57;;;;;;;;;;4975867;28;20410;-67
2022/02/12 07:09:11;;;;;;;2.87;1.37;;;;;;;;;;4993204;28;20467;-67
2022/02/12 07:11:38;;;;;;;4.00;1.23;;;;;;;;;;4991468;28;20034;-67
2022/02/12 07:14:04;;;;;;;3.10;1.40;;;;;;;;;;4992803;28;20506;-68
2022/02/12 07:16:30;;;;;;;1.93;0.93;;;;;;;;;;4983208;28;20398;-68
2022/02/12 07:18:56;;;;;;;3.50;1.53;;;;;;;;;;4973217;28;20039;-68
2022/02/12 07:21:22;;;;;;;4.07;1.70;;;;;;;;;;4973496;28;20066;-68
2022/02/12 07:23:49;;;;;;;2.57;1.50;;;;;;;;;;4973562;28;20365;-68
2022/02/12 07:26:15;;;;;;;5.27;2.07;;;;;;;;;;4973481;28;20033;-68
2022/02/12 07:28:42;;;;;;;5.27;1.90;;;;;;;;;;4980709;28;20491;-69
2022/02/12 07:31:08;;;;;;;5.00;1.80;;;;;;;;;;4992723;28;20089;-70
2022/02/12 07:33:34;;;;;;;3.33;1.70;;;;;;;;;;4992538;28;20119;-67
2022/02/12 07:36:00;;;;;;;11.87;3.63;;;;;;;;;;4992620;28;20034;-67
2022/02/12 07:38:26;;;;;;;11.13;5.97;;;;;;;;;;4996229;28;20038;-68
2022/02/12 07:40:52;;;;;;;8.50;4.67;;;;;;;;;;4995871;28;20038;-69
2022/02/12 07:43:19;;;;;;;8.47;4.03;;;;;;;;;;4996033;28;20124;-68
2022/02/12 07:45:45;;;;;;;12.80;5.83;;;;;;;;;;4995857;28;20038;-69
2022/02/12 07:48:11;;;;;;;6.73;3.73;;;;;;;;;;4995827;28;20518;-69
2022/02/12 07:50:37;;;;;;;10.03;4.37;;;;;;;;;;4995857;28;20038;-69
2022/02/12 07:53:03;;;;;;;6.80;2.60;;;;;;;;;;4995602;28;20049;-68
2022/02/12 07:55:30;;;;;;;10.30;5.53;;;;;;;;;;4995855;28;20090;-68
2022/02/12 07:57:57;;;;;;;5.77;3.10;;;;;;;;;;4996119;28;20447;-68
2022/02/12 08:00:24;;;;;;;4.70;2.83;;;;;;;;;;4994303;28;20062;-66
2022/02/12 08:02:54;;;;;;;6.70;4.00;;;;;;;;;;4993658;28;20034;-67
2022/02/12 08:05:20;;;;;;;9.20;5.17;;;;;;;;;;4993366;28;20447;-67
2022/02/12 08:07:46;;;;;;;4.30;2.17;;;;;;;;;;4995130;28;20030;-66
2022/02/12 08:12:58;;;;;;;1.63;1.00;;;;;;;;;;4996105;28;20117;-66
2022/02/12 08:15:25;;;;;;;3.20;1.30;;;;;;;;;;4995763;28;20037;-66
2022/02/12 08:17:51;;;;;;;2.00;1.00;;;;;;;;;;4994686;28;20046;-66
2022/02/12 08:20:17;;;;;;;2.87;0.97;;;;;;;;;;4993045;28;20082;-65
2022/02/12 08:22:44;;;;;;;4.10;1.00;;;;;;;;;;4993057;28;20376;-65
2022/02/12 08:25:10;;;;;;;1.73;0.83;;;;;;;;;;4994476;28;20032;-67
2022/02/12 08:27:36;;;;;;;1.43;0.80;;;;;;;;;;4995566;28;20034;-67
2022/02/12 08:30:03;;;;;;;1.50;0.80;;;;;;;;;;4994408;28;20438;-65
2022/02/12 08:32:29;;;;;;;0.87;0.33;;;;;;;;;;4995689;28;20038;-66
2022/02/12 08:34:55;;;;;;;2.20;0.50;;;;;;;;;;4995636;28;20034;-67
2022/02/12 08:37:22;;;;;;;0.83;0.57;;;;;;;;;;4995516;28;20093;-66
2022/02/12 08:39:49;;;;;;;1.50;0.40;;;;;;;;;;4995445;28;20035;-66
2022/02/12 08:42:15;;;;;;;1.63;0.70;;;;;;;;;;4995473;28;20035;-66
2022/02/12 08:44:41;;;;;;;1.53;0.60;;;;;;;;;;4995410;28;20501;-66
2022/02/12 08:47:11;;;;;;;1.87;0.50;;;;;;;;;;4995333;28;20442;-66
2022/02/12 08:49:38;;;;;;;2.73;1.43;;;;;;;;;;4994911;28;20037;-66
2022/02/12 08:52:04;;;;;;;1.87;0.60;;;;;;;;;;4995049;28;20030;-66
2022/02/12 08:54:30;;;;;;;0.87;0.50;;;;;;;;;;4994649;28;20117;-67
2022/02/12 08:56:56;;;;;;;1.40;0.57;;;;;;;;;;4995109;28;20487;-68
2022/02/12 08:59:23;;;;;;;2.37;0.43;;;;;;;;;;4995182;28;20034;-66
2022/02/12 09:01:49;;;;;;;5.00;0.60;;;;;;;;;;4992850;28;20038;-66
2022/02/12 09:04:16;;;;;;;0.97;0.57;;;;;;;;;;4994758;28;20038;-67
2022/02/12 09:06:42;;;;;;;2.53;0.70;;;;;;;;;;4994713;28;20034;-66
2022/02/12 09:09:13;;;;;;;1.13;0.40;;;;;;;;;;4994707;28;20047;-69
2022/02/12 09:11:40;;;;;;;2.50;0.50;;;;;;;;;;4994533;28;20038;-67
2022/02/12 09:14:07;;;;;;;1.87;0.50;;;;;;;;;;4994582;28;20041;-70
2022/02/12 09:16:33;;;;;;;2.07;0.70;;;;;;;;;;4983064;28;20491;-67
2022/02/12 09:18:59;;;;;;;3.13;0.70;;;;;;;;;;4975006;28;20043;-66
2022/02/12 09:21:25;;;;;;;2.07;0.40;;;;;;;;;;4975119;28;20103;-66
2022/02/12 09:23:51;;;;;;;3.90;0.50;;;;;;;;;;4975037;28;20458;-70
2022/02/12 09:26:21;;;;;;;3.40;0.47;;;;;;;;;;4986854;28;20035;-66
2022/02/12 09:28:47;;;;;;;2.10;0.80;;;;;;;;;;4994218;28;20037;-69
2022/02/12 09:31:13;;;;;;;1.33;0.47;;;;;;;;;;4990728;28;20045;-66
2022/02/12 09:33:39;;;;;;;2.07;0.60;;;;;;;;;;4974866;28;20491;-70
2022/02/12 09:36:06;;;;;;;2.10;0.40;;;;;;;;;;4974457;28;20087;-67
2022/02/12 09:38:32;;;;;;;2.93;0.60;;;;;;;;;;4974584;28;20041;-68
2022/02/12 09:40:59;;;;;;;1.63;0.50;;;;;;;;;;4974625;28;20035;-66
2022/02/12 09:43:26;;;;;;;1.20;0.50;;;;;;;;;;4974735;28;20058;-66
2022/02/12 09:46:04;;;;;;;1.07;0.50;;;;;;;;;;4974774;28;20123;-66
2022/02/12 09:48:35;;;;;;;1.03;0.50;;;;;;;;;;4974904;28;20038;-66
2022/02/12 09:51:02;;;;;;;1.80;0.50;;;;;;;;;;4974440;28;20110;-66
2022/02/12 09:53:31;;;;;;;1.70;0.53;;;;;;;;;;4974179;28;20031;-66
2022/02/12 09:55:57;;;;;;;1.63;0.50;;;;;;;;;;4974534;28;20465;-66
2022/02/12 09:58:23;;;;;;;1.23;0.63;;;;;;;;;;4974086;28;20058;-66
2022/02/12 10:00:50;;;;;;;2.00;0.77;;;;;;;;;;4974318;28;20046;-68
2022/02/12 10:03:16;;;;;;;2.40;0.60;;;;;;;;;;4974101;28;20046;-67
2022/02/12 10:05:53;;;;;;;0.80;0.43;;;;;;;;;;4974573;28;20197;-67
2022/02/12 10:08:21;;;;;;;0.83;0.40;;;;;;;;;;4974764;28;20078;-68
2022/02/12 10:10:48;;;;;;;1.70;0.50;;;;;;;;;;4976169;28;20678;-69
2022/02/12 10:13:16;;;;;;;3.87;0.70;;;;;;;;;;4972169;28;20455;-68
2022/02/12 10:15:58;;;;;;;1.63;0.70;;;;;;;;;;4973318;28;20480;-67
2022/02/12 10:18:26;;;;;;;4.03;0.50;;;;;;;;;;4973876;28;20047;-67
2022/02/12 10:20:54;;;;;;;2.40;0.70;;;;;;;;;;4974245;28;20085;-67
2022/02/12 10:23:20;;;;;;;1.47;0.40;;;;;;;;;;4974321;28;20035;-68
2022/02/12 10:25:47;;;;;;;1.10;0.50;;;;;;;;;;4973463;28;20046;-68
2022/02/12 10:28:15;;;;;;;0.80;0.40;;;;;;;;;;4974247;28;20050;-68
2022/02/12 10:30:43;;;;;;;1.03;0.50;;;;;;;;;;4982543;28;20030;-67
2022/02/12 10:33:09;;;;;;;1.40;0.70;;;;;;;;;;4993578;28;20041;-68
2022/02/12 10:35:36;;;;;;;2.67;0.50;;;;;;;;;;4993393;28;20038;-68
2022/02/12 10:38:04;;;;;;;2.07;0.60;;;;;;;;;;4993367;28;20042;-67
2022/02/12 10:40:30;;;;;;;2.53;1.50;;;;;;;;;;4993364;28;20054;-66
2022/02/12 10:42:57;;;;;;;1.73;0.83;;;;;;;;;;4993245;28;20085;-68
2022/02/12 10:45:25;;;;;;;1.07;0.50;;;;;;;;;;4993129;28;20110;-67
2022/02/12 10:47:52;;;;;;;2.77;1.40;;;;;;;;;;4992920;28;20069;-68
2022/02/12 10:50:18;;;;;;;2.17;0.83;;;;;;;;;;4993427;28;20062;-67
2022/02/12 10:52:45;;;;;;;2.40;0.77;;;;;;;;;;4993362;28;20117;-68
2022/02/12 10:55:40;;;;;;;4.13;0.83;;;;;;;;;;4993061;28;20042;-67
2022/02/12 10:58:10;;;;;;;4.37;0.77;;;;;;;;;;4993244;28;20046;-67
2022/02/12 11:00:37;;;;;;;4.47;0.80;;;;;;;;;;4993447;28;20039;-67
2022/02/12 11:03:12;;;;;;;3.03;0.70;;;;;;;;;;4992961;28;20500;-68
2022/02/12 11:05:40;;;;;;;1.40;0.60;;;;;;;;;;4993349;28;20049;-67
2022/02/12 11:08:07;;;;;;;1.42;0.60;;;;;;;;;;4992304;28;20031;-68
2022/02/12 11:10:36;;;;;;;1.90;1.00;;;;;;;;;;4992338;28;20037;-67
2022/02/12 11:13:03;;;;;;;3.83;0.70;;;;;;;;;;4995967;28;20042;-67
2022/02/12 11:15:30;;;;;;;6.47;0.80;;;;;;;;;;4996903;28;20080;-67
2022/02/12 11:17:57;;;;;;;0.93;0.60;;;;;;;;;;4996645;28;20046;-66
2022/02/12 11:20:23;;;;;;;1.90;0.80;;;;;;;;;;4996421;28;20494;-68
2022/02/12 11:22:55;;;;;;;1.70;0.60;;;;;;;;;;4996214;28;20046;-67
2022/02/12 11:25:35;;;;;;;1.63;0.75;;;;;;;;;;4993731;28;20026;-70
2022/02/12 11:28:05;;;;;;;1.33;0.80;;;;;;;;;;4993891;28;20383;-68
2022/02/12 11:30:31;;;;;;;2.63;0.73;;;;;;;;;;4978159;28;20503;-67
2022/02/12 11:32:59;;;;;;;0.90;0.50;;;;;;;;;;4976980;28;20066;-68
2022/02/12 11:35:27;;;;;;;3.08;0.80;;;;;;;;;;4976884;28;20382;-68
2022/02/12 11:37:53;;;;;;;3.30;0.80;;;;;;;;;;4976851;28;20047;-67
2022/02/12 11:40:25;;;;;;;1.30;0.73;;;;;;;;;;4976672;28;20034;-67
2022/02/12 11:42:59;;;;;;;1.83;0.60;;;;;;;;;;4976492;28;20626;-67
2022/02/12 11:45:38;;;;;;;1.38;0.60;;;;;;;;;;4976774;28;20030;-68
2022/02/12 11:48:12;;;;;;;7.60;1.65;;;;;;;;;;4976601;28;20066;-66
2022/02/12 11:50:49;;;;;;;2.47;0.50;;;;;;;;;;4977148;28;20360;-67
2022/02/12 11:53:31;;;;;;;3.95;0.70;;;;;;;;;;4976374;28;20500;-67
2022/02/12 11:55:57;;;;;;;1.53;0.50;;;;;;;;;;4976208;28;20066;-69
2022/02/12 11:58:46;;;;;;;1.60;0.65;;;;;;;;;;4976013;28;20530;-67
2022/02/12 12:01:28;;;;;;;1.65;0.60;;;;;;;;;;4975150;28;20043;-68
2022/02/12 12:04:21;;;;;;;1.45;0.70;;;;;;;;;;4974020;28;20063;-66
2022/02/12 12:07:03;;;;;;;5.28;0.90;;;;;;;;;;4976250;28;20035;-67
2022/02/12 12:09:40;;;;;;;1.83;1.00;;;;;;;;;;4976534;28;20042;-67
2022/02/12 12:12:12;;;;;;;2.08;0.80;;;;;;;;;;4976185;28;20039;-67
2022/02/12 12:14:38;;;;;;;1.50;0.70;;;;;;;;;;4976236;28;20031;-67
2022/02/12 12:17:04;;;;;;;4.78;0.60;;;;;;;;;;4975733;28;20043;-68
2022/02/12 12:19:31;;;;;;;3.88;0.60;;;;;;;;;;4975911;28;20031;-67
2022/02/12 12:21:57;;;;;;;1.70;0.82;;;;;;;;;;4976250;28;20085;-68
2022/02/12 12:24:24;;;;;;;1.67;0.63;;;;;;;;;;4966030;28;20055;-67
2022/02/12 12:26:50;;;;;;;1.42;0.70;;;;;;;;;;4965909;28;20039;-67
2022/02/12 12:32:05;;;;;;;1.77;0.60;;;;;;;;;;4959588;28;20043;-67
2022/02/12 12:34:32;;;;;;;1.00;0.60;;;;;;;;;;4955467;28;20039;-67
2022/02/12 12:36:58;;;;;;;1.48;0.70;;;;;;;;;;4955729;28;20043;-68
2022/02/12 12:39:50;;;;;;;2.45;0.80;;;;;;;;;;4967100;28;20033;-72
2022/02/12 12:42:19;;;;;;;1.35;0.68;;;;;;;;;;4973773;28;20085;-68
2022/02/12 12:45:00;;;;;;;4.90;1.00;;;;;;;;;;4964716;28;20039;-70
2022/02/12 12:47:27;;;;;;;2.55;1.00;;;;;;;;;;4974687;28;20066;-69
2022/02/12 12:49:57;;;;;;;2.30;1.00;;;;;;;;;;4966173;28;20035;-68
2022/02/12 12:52:26;;;;;;;6.57;1.60;;;;;;;;;;4964115;28;20035;-68
2022/02/12 12:54:56;;;;;;;2.03;0.90;;;;;;;;;;4969741;28;20234;-68
2022/02/12 12:57:27;;;;;;;2.88;1.23;;;;;;;;;;4972591;28;20439;-70
2022/02/12 12:59:54;;;;;;;6.60;0.93;;;;;;;;;;4974762;28;20115;-68
2022/02/12 13:02:20;;;;;;;2.38;1.30;;;;;;;;;;4974568;28;20121;-70
2022/02/12 13:04:48;;;;;;;4.70;0.88;;;;;;;;;;4975034;28;20065;-68
2022/02/12 13:07:18;;;;;;;1.83;0.80;;;;;;;;;;4974428;28;20035;-69
2022/02/12 13:09:45;;;;;;;6.57;1.00;;;;;;;;;;4974505;28;20034;-69
2022/02/12 13:12:26;;;;;;;1.52;0.70;;;;;;;;;;4975203;28;20039;-69
2022/02/12 13:14:53;;;;;;;1.20;0.60;;;;;;;;;;4974951;28;20475;-68
2022/02/12 13:17:19;;;;;;;3.72;0.90;;;;;;;;;;4974834;28;20058;-69
2022/02/12 13:19:47;;;;;;;1.38;0.80;;;;;;;;;;4974703;28;20034;-68
2022/02/12 13:22:13;;;;;;;1.92;1.08;;;;;;;;;;4974709;28;20049;-68
2022/02/12 13:24:40;;;;;;;1.67;0.80;;;;;;;;;;4974847;28;20031;-69
2022/02/12 13:27:11;;;;;;;2.38;0.75;;;;;;;;;;4974424;28;20062;-69
2022/02/12 13:29:40;;;;;;;3.58;0.95;;;;;;;;;;4974048;28;20550;-69
2022/02/12 13:32:08;;;;;;;2.72;0.95;;;;;;;;;;4991669;28;20116;-68
2022/02/12 13:34:41;;;;;;;1.70;0.90;;;;;;;;;;4993968;28;20084;-68
2022/02/12 13:37:07;;;;;;;2.78;0.93;;;;;;;;;;4994105;28;20054;-68
2022/02/12 13:39:35;;;;;;;1.25;0.70;;;;;;;;;;4993832;28;20035;-70
2022/02/12 13:42:01;;;;;;;3.95;0.88;;;;;;;;;;4993893;28;20470;-68
2022/02/12 13:44:31;;;;;;;1.67;0.80;;;;;;;;;;4993959;28;20031;-68
2022/02/12 13:47:02;;;;;;;0.98;0.60;;;;;;;;;;4994162;28;20109;-68
2022/02/12 13:49:29;;;;;;;2.85;0.80;;;;;;;;;;4993610;28;20070;-69
2022/02/12 13:52:00;;;;;;;4.85;0.85;;;;;;;;;;4993853;28;20045;-69
2022/02/12 13:54:27;;;;;;;1.40;0.95;;;;;;;;;;4993746;28;20397;-68
2022/02/12 13:56:56;;;;;;;2.10;1.20;;;;;;;;;;4993886;28;20042;-68
2022/02/12 13:59:22;;;;;;;9.63;1.00;;;;;;;;;;4993511;28;20128;-68
2022/02/12 14:01:54;;;;;;;2.78;0.98;;;;;;;;;;4994075;28;20034;-68
2022/02/12 14:04:20;;;;;;;2.50;1.25;;;;;;;;;;4993676;28;20034;-69
2022/02/12 14:06:46;;;;;;;1.55;0.93;;;;;;;;;;4993857;28;20435;-68
2022/02/12 14:09:14;;;;;;;1.80;1.02;;;;;;;;;;4993630;28;20080;-67
2022/02/12 14:11:44;;;;;;;1.70;1.13;;;;;;;;;;4993369;28;20077;-67
2022/02/12 14:14:13;;;;;;;2.35;1.15;;;;;;;;;;4993508;28;20039;-68
2022/02/12 14:16:44;;;;;;;3.58;1.25;;;;;;;;;;4993525;28;20062;-67
2022/02/12 14:19:11;;;;;;;2.42;1.48;;;;;;;;;;4993540;28;20490;-67
2022/02/12 14:21:38;;;;;;;3.72;1.23;;;;;;;;;;4993339;28;20030;-67
2022/02/12 14:24:04;;;;;;;2.72;1.52;;;;;;;;;;4993275;28;20125;-70
2022/02/12 14:26:32;;;;;;;2.97;1.42;;;;;;;;;;4993623;28;20042;-67
2022/02/12 14:28:58;;;;;;;2.22;1.30;;;;;;;;;;4993505;28;20425;-67
2022/02/12 14:31:24;;;;;;;2.33;1.10;;;;;;;;;;4993512;28;20034;-70
2022/02/12 14:33:50;;;;;;;3.03;1.50;;;;;;;;;;4993598;28;20038;-67
2022/02/12 14:36:16;;;;;;;4.10;1.30;;;;;;;;;;4993634;28;20487;-68
2022/02/12 14:38:43;;;;;;;3.40;1.23;;;;;;;;;;4993445;28;20069;-67
2022/02/12 14:41:13;;;;;;;2.53;1.40;;;;;;;;;;4993530;28;20039;-68
2022/02/12 14:43:39;;;;;;;2.58;1.33;;;;;;;;;;4993274;28;20482;-67
2022/02/12 14:46:05;;;;;;;4.20;1.70;;;;;;;;;;4993377;28;20031;-67
2022/02/12 14:48:32;;;;;;;2.83;1.42;;;;;;;;;;4997395;28;20034;-67
2022/02/12 14:50:58;;;;;;;3.83;1.50;;;;;;;;;;4997538;28;20039;-67
2022/02/12 14:53:26;;;;;;;2.05;1.35;;;;;;;;;;4997634;28;20121;-68
2022/02/12 14:55:53;;;;;;;3.92;1.58;;;;;;;;;;4997411;28;20128;-70
2022/02/12 14:58:19;;;;;;;2.38;1.40;;;;;;;;;;4996290;28;20084;-68
2022/02/12 15:00:45;;;;;;;3.03;1.80;;;;;;;;;;4997445;28;20391;-68
2022/02/12 15:03:11;;;;;;;2.83;1.33;;;;;;;;;;4997578;28;20442;-70
2022/02/12 15:05:38;;;;;;;2.75;1.40;;;;;;;;;;4997289;28;20069;-68
2022/02/12 15:08:05;;;;;;;2.80;1.40;;;;;;;;;;4997483;28;20064;-69
2022/02/12 15:10:31;;;;;;;6.90;2.05;;;;;;;;;;4997234;28;20495;-71
2022/02/12 15:12:57;;;;;;;1.80;1.20;;;;;;;;;;4997363;28;20037;-69
2022/02/12 15:15:23;;;;;;;4.57;2.15;;;;;;;;;;4997265;28;20031;-70
2022/02/12 15:17:49;;;;;;;2.92;1.38;;;;;;;;;;4996954;28;20034;-69
2022/02/12 15:20:15;;;;;;;2.00;1.20;;;;;;;;;;4998343;28;20119;-69
2022/02/12 15:22:42;;;;;;;2.63;1.40;;;;;;;;;;4999736;28;20467;-70
2022/02/12 15:25:09;;;;;;;4.75;1.42;;;;;;;;;;4999292;28;20486;-69
2022/02/12 15:27:36;;;;;;;2.58;1.60;;;;;;;;;;4996551;28;20386;-69
2022/02/12 15:30:02;;;;;;;3.30;1.45;;;;;;;;;;4994272;28;20034;-69
2022/02/12 15:32:29;;;;;;;2.75;1.27;;;;;;;;;;4994346;28;20050;-70
2022/02/12 15:34:55;;;;;;;1.90;1.42;;;;;;;;;;4996026;28;20038;-70
2022/02/12 15:37:21;;;;;;;2.45;1.30;;;;;;;;;;4997133;28;20046;-69
2022/02/12 15:39:48;;;;;;;3.97;1.70;;;;;;;;;;4997185;28;20395;-70
2022/02/12 15:42:14;;;;;;;2.63;1.70;;;;;;;;;;4996703;28;20069;-71
2022/02/12 15:44:41;;;;;;;3.47;1.90;;;;;;;;;;4997046;28;20030;-70
2022/02/12 15:47:08;;;;;;;2.72;1.50;;;;;;;;;;4996667;28;20487;-71
2022/02/12 15:49:34;;;;;;;2.67;1.20;;;;;;;;;;4996678;28;20122;-71
2022/02/12 15:52:03;;;;;;;2.88;1.30;;;;;;;;;;4996818;28;20387;-70
2022/02/12 15:54:29;;;;;;;3.15;1.40;;;;;;;;;;4993348;28;20101;-70
2022/02/12 15:56:55;;;;;;;2.60;1.42;;;;;;;;;;4993617;28;20391;-69
2022/02/12 15:59:21;;;;;;;2.95;1.60;;;;;;;;;;4993052;28;20038;-69
2022/02/12 16:01:47;;;;;;;5.05;2.20;;;;;;;;;;4995964;28;20497;-70
2022/02/12 16:04:15;;;;;;;2.65;1.52;;;;;;;;;;4996107;28;20117;-70
2022/02/12 16:06:41;;;;;;;4.40;1.88;;;;;;;;;;4996441;28;20034;-71
2022/02/12 16:09:07;;;;;;;4.65;1.60;;;;;;;;;;4996110;28;20495;-70
2022/02/12 16:11:33;;;;;;;4.20;1.90;;;;;;;;;;4995820;28;20061;-69
2022/02/12 16:13:59;;;;;;;2.70;1.90;;;;;;;;;;4996017;28;20372;-69
2022/02/12 16:16:25;;;;;;;7.20;1.60;;;;;;;;;;4995776;28;20045;-70
2022/02/12 16:18:51;;;;;;;2.83;1.77;;;;;;;;;;4996144;28;20150;-70
2022/02/12 16:21:19;;;;;;;5.13;2.00;;;;;;;;;;4996030;28;20045;-69
2022/02/12 16:23:45;;;;;;;4.60;2.10;;;;;;;;;;4995847;28;20462;-69
2022/02/12 16:26:11;;;;;;;5.87;2.03;;;;;;;;;;4995683;28;20081;-69
2022/02/12 16:28:37;;;;;;;4.70;2.43;;;;;;;;;;4995842;28;20113;-70
2022/02/12 16:31:04;;;;;;;5.40;2.37;;;;;;;;;;4995549;28;20407;-69
2022/02/12 16:33:33;;;;;;;5.13;2.20;;;;;;;;;;4995575;28;20031;-69
2022/02/12 16:35:59;;;;;;;4.37;2.73;;;;;;;;;;4995731;28;20027;-69
2022/02/12 16:38:26;;;;;;;3.60;2.10;;;;;;;;;;4995357;28;20046;-69
2022/02/12 16:40:52;;;;;;;6.03;2.70;;;;;;;;;;4995892;28;20042;-69
2022/02/12 16:43:18;;;;;;;6.93;3.10;;;;;;;;;;4995732;28;20034;-69
2022/02/12 16:45:44;;;;;;;5.47;2.67;;;;;;;;;;4995271;28;20038;-70
2022/02/12 16:48:10;;;;;;;6.50;3.40;;;;;;;;;;4995674;28;20069;-69
2022/02/12 16:50:36;;;;;;;4.37;2.50;;;;;;;;;;4995411;28;20035;-69
2022/02/12 16:53:03;;;;;;;8.33;2.53;;;;;;;;;;4995552;28;20039;-71
2022/02/12 16:55:31;;;;;;;4.57;2.50;;;;;;;;;;4994919;28;20057;-70
2022/02/12 16:57:57;;;;;;;3.60;2.10;;;;;;;;;;4995057;28;20081;-69
2022/02/12 17:00:24;;;;;;;3.53;2.23;;;;;;;;;;4994564;28;20045;-70
2022/02/12 17:02:51;;;;;;;8.87;2.00;;;;;;;;;;4991021;28;20184;-69
2022/02/12 17:05:20;;;;;;;3.60;1.73;;;;;;;;;;4992531;28;20080;-72
2022/02/12 17:07:46;;;;;;;3.67;1.73;;;;;;;;;;4993142;28;20030;-71
2022/02/12 17:10:12;;;;;;;3.10;1.80;;;;;;;;;;4994333;28;20049;-70
2022/02/12 17:12:38;;;;;;;3.90;2.33;;;;;;;;;;4994642;28;20037;-70
2022/02/12 17:15:07;;;;;;;4.40;2.23;;;;;;;;;;4994733;28;20034;-69
2022/02/12 17:17:34;;;;;;;3.60;2.20;;;;;;;;;;4992507;28;20085;-69
2022/02/12 17:20:00;;;;;;;5.27;2.77;;;;;;;;;;4992022;28;20026;-69
2022/02/12 17:22:26;;;;;;;4.40;2.57;;;;;;;;;;4972135;28;20054;-70
2022/02/12 17:24:52;;;;;;;5.13;3.20;;;;;;;;;;4967546;28;20062;-69
2022/02/12 17:27:18;;;;;;;5.10;3.30;;;;;;;;;;4973160;28;20039;-71
2022/02/12 17:29:46;;;;;;;7.07;3.47;;;;;;;;;;4962098;28;20113;-69
2022/02/12 17:32:13;;;;;;;6.20;3.50;;;;;;;;;;4964392;28;20073;-69
2022/02/12 17:34:39;;;;;;;6.63;3.70;;;;;;;;;;4964398;28;20038;-70
2022/02/12 17:37:06;;;;;;;8.03;4.43;;;;;;;;;;4970475;28;20043;-71
2022/02/12 17:39:32;;;;;;;5.97;3.33;;;;;;;;;;4971841;28;20046;-69
2022/02/12 17:42:00;;;;;;;6.83;3.37;;;;;;;;;;4973701;28;20035;-70
2022/02/12 17:44:27;;;;;;;8.03;4.80;;;;;;;;;;4974487;28;20049;-70
2022/02/12 17:46:54;;;;;;;4.33;2.57;;;;;;;;;;4973248;28;20578;-70
2022/02/12 17:49:23;;;;;;;5.57;3.17;;;;;;;;;;4973297;28;20591;-69
2022/02/12 17:51:49;;;;;;;5.70;3.50;;;;;;;;;;4973884;28;20090;-69
2022/02/12 17:54:16;;;;;;;5.93;3.50;;;;;;;;;;4973965;28;20450;-69
2022/02/12 17:56:43;;;;;;;6.37;3.70;;;;;;;;;;4974274;28;20092;-70
2022/02/12 17:59:09;;;;;;;4.60;2.30;;;;;;;;;;4974821;28;20039;-70
2022/02/12 18:01:35;;;;;;;4.27;2.20;;;;;;;;;;4974557;28;20035;-69
2022/02/12 18:04:01;;;;;;;3.60;2.13;;;;;;;;;;4974526;28;20045;-69
2022/02/12 18:06:27;;;;;;;3.87;2.17;;;;;;;;;;4974643;28;20077;-69
2022/02/12 18:11:40;;;;;;;4.43;2.73;;;;;;;;;;4974717;28;20169;-69
2022/02/12 18:14:06;;;;;;;4.87;2.50;;;;;;;;;;4974885;28;20039;-70
2022/02/12 18:16:32;;;;;;;6.47;2.70;;;;;;;;;;4974474;28;20114;-69
2022/02/12 18:18:58;;;;;;;3.63;2.40;;;;;;;;;;4974635;28;20039;-69
2022/02/12 18:21:24;;;;;;;4.50;2.47;;;;;;;;;;4973768;28;20031;-70
2022/02/12 18:23:50;;;;;;;3.73;2.60;;;;;;;;;;4974475;28;20030;-69
2022/02/12 18:26:16;;;;;;;4.73;2.90;;;;;;;;;;4972990;28;20041;-69
2022/02/12 18:28:43;;;;;;;4.67;2.90;;;;;;;;;;4971758;28;20119;-69
2022/02/12 18:31:09;;;;;;;5.43;3.03;;;;;;;;;;4971715;28;20039;-70
2022/02/12 18:33:35;;;;;;;5.50;3.17;;;;;;;;;;4973193;28;20027;-70
2022/02/12 18:36:01;;;;;;;5.47;3.37;;;;;;;;;;4974415;28;20500;-70
2022/02/12 18:38:27;;;;;;;6.87;3.40;;;;;;;;;;4974414;28;20085;-69
2022/02/12 18:40:55;;;;;;;3.67;2.80;;;;;;;;;;4974282;28;20034;-69
2022/02/12 18:43:21;;;;;;;5.60;3.07;;;;;;;;;;4973966;28;20491;-69
2022/02/12 18:45:47;;;;;;;4.90;2.90;;;;;;;;;;4974439;28;20038;-69
2022/02/12 18:48:13;;;;;;;5.47;3.07;;;;;;;;;;4974260;28;20046;-70
2022/02/12 18:50:39;;;;;;;7.40;3.13;;;;;;;;;;4974258;28;20714;-69
2022/02/12 18:53:06;;;;;;;6.57;4.20;;;;;;;;;;4974125;28;20118;-69
2022/02/12 18:55:32;;;;;;;7.17;4.53;;;;;;;;;;4973424;28;20419;-70
2022/02/12 18:57:59;;;;;;;10.37;3.90;;;;;;;;;;4973938;28;20506;-69
2022/02/12 19:00:25;;;;;;;6.03;3.73;;;;;;;;;;4974089;28;20089;-69
2022/02/12 19:02:51;;;;;;;7.60;3.80;;;;;;;;;;4973848;28;20122;-69
2022/02/12 19:05:17;;;;;;;9.20;3.60;;;;;;;;;;4973779;28;20094;-69
2022/02/12 19:07:44;;;;;;;5.90;3.60;;;;;;;;;;4973892;28;20042;-69
2022/02/12 19:10:11;;;;;;;7.23;3.83;;;;;;;;;;4974081;28;20050;-71
2022/02/12 19:12:37;;;;;;;6.07;2.80;;;;;;;;;;4974033;28;20427;-70
2022/02/12 19:15:03;;;;;;;5.17;3.23;;;;;;;;;;4974015;28;20035;-69
2022/02/12 19:17:30;;;;;;;9.10;4.80;;;;;;;;;;4973989;28;20047;-70
2022/02/12 19:19:59;;;;;;;7.43;4.27;;;;;;;;;;4974028;28;20034;-70
2022/02/12 19:22:25;;;;;;;9.37;3.30;;;;;;;;;;4973914;28;20039;-69
2022/02/12 19:24:51;;;;;;;6.53;3.50;;;;;;;;;;4973775;28;20427;-69
2022/02/12 19:27:20;;;;;;;5.60;3.60;;;;;;;;;;4973848;28;20066;-69
2022/02/12 19:29:46;;;;;;;9.90;5.70;;;;;;;;;;4973892;28;20056;-69
2022/02/12 19:32:12;;;;;;;9.13;4.93;;;;;;;;;;4974061;28;20039;-69
2022/02/12 19:34:38;;;;;;;8.00;4.70;;;;;;;;;;4977254;28;20112;-69
2022/02/12 19:37:04;;;;;;;7.37;4.40;;;;;;;;;;4974895;28;20043;-68
2022/02/12 19:39:33;;;;;;;10.37;6.73;;;;;;;;;;4974847;28;20027;-68
2022/02/12 19:42:09;;;;;;;24.87;16.77;;;;;;;;;;4973825;28;20057;-69
2022/02/12 19:44:37;;;;;;;21.93;13.80;;;;;;;;;;4976330;28;20047;-71
2022/02/12 19:47:04;;;;;;;10.37;7.70;;;;;;;;;;4976000;28;20054;-71
2022/02/12 19:49:30;;;;;;;8.47;6.10;;;;;;;;;;4976113;28;20052;-72
2022/02/12 19:51:56;;;;;;;7.30;5.10;;;;;;;;;;4976127;28;20098;-71
2022/02/12 19:54:22;;;;;;;8.00;5.63;;;;;;;;;;4970443;28;20047;-70
2022/02/12 19:56:48;;;;;;;8.63;5.60;;;;;;;;;;4971656;28;20514;-68
2022/02/12 19:59:15;;;;;;;11.87;7.10;;;;;;;;;;4974697;28;20074;-68
2022/02/12 20:01:42;;;;;;;12.77;7.30;;;;;;;;;;4974969;28;20058;-69
2022/02/12 20:04:08;;;;;;;9.87;6.13;;;;;;;;;;4976035;28;20038;-70
2022/02/12 20:06:34;;;;;;;11.63;7.00;;;;;;;;;;4975942;28;20034;-70
2022/02/12 20:09:00;;;;;;;10.00;6.13;;;;;;;;;;4976156;28;20089;-71
2022/02/12 20:11:26;;;;;;;8.23;4.33;;;;;;;;;;4976563;28;20543;-69
2022/02/12 20:13:53;;;;;;;5.53;3.67;;;;;;;;;;4975887;28;20464;-69
2022/02/12 20:16:20;;;;;;;10.47;6.03;;;;;;;;;;4975051;28;20057;-72
2022/02/12 20:18:46;;;;;;;9.63;6.50;;;;;;;;;;4976249;28;20430;-69
2022/02/12 20:21:13;;;;;;;10.20;6.97;;;;;;;;;;4975767;28;20125;-72
2022/02/12 20:23:40;;;;;;;10.80;5.83;;;;;;;;;;4976235;28;20073;-71
2022/02/12 20:26:06;;;;;;;11.60;5.77;;;;;;;;;;4976147;28;20166;-70
2022/02/12 20:28:33;;;;;;;10.80;5.60;;;;;;;;;;4979436;28;20039;-68
2022/02/12 20:30:59;;;;;;;10.23;5.70;;;;;;;;;;4978151;28;20105;-69
2022/02/12 20:33:25;;;;;;;9.53;6.50;;;;;;;;;;4975988;28;20031;-70
2022/02/12 20:35:51;;;;;;;13.00;7.30;;;;;;;;;;4976065;28;20499;-69
2022/02/12 20:38:19;;;;;;;10.43;7.03;;;;;;;;;;4975606;28;20483;-70
2022/02/12 20:40:46;;;;;;;11.10;7.17;;;;;;;;;;4975859;28;20487;-71
2022/02/12 20:43:12;;;;;;;8.53;5.70;;;;;;;;;;4975319;28;20062;-70
2022/02/12 20:45:38;;;;;;;14.43;10.33;;;;;;;;;;4973864;28;20034;-70
2022/02/12 20:48:04;;;;;;;23.20;15.30;;;;;;;;;;4975181;28;20117;-69
2022/02/12 20:50:30;;;;;;;15.60;8.50;;;;;;;;;;4975593;28;20086;-70
2022/02/12 20:52:57;;;;;;;14.27;9.20;;;;;;;;;;4975446;28;20058;-70
2022/02/12 20:55:23;;;;;;;10.03;6.10;;;;;;;;;;4974828;28;20097;-70
2022/02/12 20:57:50;;;;;;;9.33;6.57;;;;;;;;;;4975467;28;20050;-69
2022/02/12 21:00:16;;;;;;;8.37;5.90;;;;;;;;;;4975563;28;20387;-69
2022/02/12 21:02:42;;;;;;;8.97;5.37;;;;;;;;;;4975494;28;20043;-69
2022/02/12 21:05:09;;;;;;;9.50;5.27;;;;;;;;;;4975652;28;20039;-71
2022/02/12 21:07:36;;;;;;;8.53;4.63;;;;;;;;;;4974088;28;20125;-72
2022/02/12 21:10:03;;;;;;;7.33;4.90;;;;;;;;;;4975475;28;20118;-69
2022/02/12 21:12:29;;;;;;;8.70;5.37;;;;;;;;;;4976254;28;20030;-69
2022/02/12 21:14:55;;;;;;;7.50;4.60;;;;;;;;;;4975175;28;20031;-71
2022/02/12 21:17:24;;;;;;;10.70;5.13;;;;;;;;;;4975343;28;20049;-69
2022/02/12 21:19:52;;;;;;;5.70;4.27;;;;;;;;;;4975550;28;20050;-69
2022/02/12 21:22:18;;;;;;;6.30;4.33;;;;;;;;;;4975097;28;20082;-70
2022/02/12 21:24:44;;;;;;;8.23;3.90;;;;;;;;;;4975366;28;20035;-68
2022/02/12 21:27:10;;;;;;;5.90;3.60;;;;;;;;;;4975324;28;20054;-75
2022/02/12 21:29:36;;;;;;;5.97;4.17;;;;;;;;;;4974965;28;20041;-69
2022/02/12 21:32:03;;;;;;;8.20;4.07;;;;;;;;;;4975281;28;20062;-70
2022/02/12 21:34:29;;;;;;;8.10;4.47;;;;;;;;;;4975017;28;20035;-70
2022/02/12 21:36:55;;;;;;;6.03;3.93;;;;;;;;;;4974572;28;20034;-69
2022/02/12 21:39:21;;;;;;;5.70;3.80;;;;;;;;;;4975034;28;20042;-70
2022/02/12 21:41:47;;;;;;;5.67;3.30;;;;;;;;;;4975052;28;20039;-70
2022/02/12 21:44:15;;;;;;;4.50;3.20;;;;;;;;;;4974977;28;20067;-69